Time;durP1;ratioP1;P1;durP2;ratioP2;P2;SDS_P1;SDS_P2;PMS_P1;PMS_P2;Temp;Humidity;BMP_temperature;BMP_pressure;BME280_temperature;BME280_humidity;BME280_pressure;Samples;Min_cycle;Max_cycle;Signal;HPM_P1;HPM_P2
2022/05/05 00:02:18;;;;;;;8.40;2.97;;;9.70;99.90;;;;;;4980767;28;20122;-76
2022/05/05 00:04:44;;;;;;;6.05;2.30;;;9.70;99.90;;;;;;4979836;28;20453;-69
2022/05/05 00:07:09;;;;;;;6.68;2.47;;;9.70;99.90;;;;;;4980593;28;20046;-71
2022/05/05 00:09:36;;;;;;;5.82;2.15;;;9.60;99.90;;;;;;4980374;28;20057;-68
2022/05/05 00:14:46;;;;;;;6.97;3.10;;;9.60;99.90;;;;;;4979198;28;20058;-69
2022/05/05 00:17:12;;;;;;;6.70;2.40;;;9.50;99.90;;;;;;4981634;28;20022;-68
2022/05/05 00:19:41;;;;;;;8.23;2.92;;;9.50;99.90;;;;;;4977918;28;20042;-69
2022/05/05 00:22:08;;;;;;;5.80;2.40;;;9.50;99.90;;;;;;4981976;28;20031;-69
2022/05/05 00:24:34;;;;;;;6.85;2.33;;;9.40;99.90;;;;;;4978041;28;20039;-70
2022/05/05 00:27:00;;;;;;;10.55;2.58;;;9.40;99.90;;;;;;4980394;28;20042;-69
2022/05/05 00:29:26;;;;;;;6.75;2.45;;;9.40;99.90;;;;;;4977410;28;20038;-73
2022/05/05 00:31:51;;;;;;;5.57;2.72;;;9.30;99.90;;;;;;4980161;28;20173;-69
2022/05/05 00:34:18;;;;;;;7.22;3.08;;;9.30;99.90;;;;;;4978433;28;20126;-71
2022/05/05 00:36:44;;;;;;;5.18;2.53;;;9.30;99.90;;;;;;4980485;28;20082;-71
2022/05/05 00:39:13;;;;;;;7.63;3.15;;;9.30;99.90;;;;;;4980191;28;20043;-70
2022/05/05 00:41:42;;;;;;;7.70;2.83;;;9.20;99.90;;;;;;4981486;28;20369;-73
2022/05/05 00:44:08;;;;;;;6.68;2.58;;;9.20;99.90;;;;;;4979270;28;20403;-69
2022/05/05 00:46:34;;;;;;;9.85;3.08;;;9.20;99.90;;;;;;4979899;28;20034;-68
2022/05/05 00:49:00;;;;;;;8.13;3.00;;;9.20;99.90;;;;;;4978423;28;20450;-68
2022/05/05 00:51:26;;;;;;;7.72;2.72;;;9.10;99.90;;;;;;4980836;28;20039;-68
2022/05/05 00:53:54;;;;;;;8.43;3.28;;;9.10;99.90;;;;;;4981056;28;20042;-69
2022/05/05 00:56:21;;;;;;;6.28;2.67;;;9.10;99.90;;;;;;4981401;28;20479;-69
2022/05/05 00:58:48;;;;;;;5.68;2.65;;;9.10;99.90;;;;;;4979683;28;20120;-69
2022/05/05 01:01:21;;;;;;;8.45;4.07;;;9.10;99.90;;;;;;4974647;28;20109;-69
2022/05/05 01:03:48;;;;;;;9.50;2.88;;;9.00;99.90;;;;;;4969561;28;20031;-68
2022/05/05 01:06:17;;;;;;;7.28;2.88;;;9.00;99.90;;;;;;4980069;28;20052;-68
2022/05/05 01:08:44;;;;;;;6.10;1.98;;;9.00;99.90;;;;;;4989340;28;20382;-68
2022/05/05 01:11:10;;;;;;;6.90;3.05;;;8.90;99.90;;;;;;4989651;28;20088;-72
2022/05/05 01:13:40;;;;;;;5.95;2.60;;;8.90;99.90;;;;;;4990094;28;20510;-68
2022/05/05 01:16:07;;;;;;;9.18;3.05;;;8.90;99.90;;;;;;4980164;28;20038;-71
2022/05/05 01:18:33;;;;;;;5.95;3.03;;;8.90;99.90;;;;;;4969718;28;20054;-69
2022/05/05 01:20:59;;;;;;;6.18;3.00;;;8.90;99.90;;;;;;4971348;28;20521;-68
2022/05/05 01:23:24;;;;;;;6.13;3.00;;;8.80;99.90;;;;;;4978255;28;20034;-70
2022/05/05 01:28:39;;;;;;;7.55;2.85;;;8.80;99.90;;;;;;4975057;28;20049;-69
2022/05/05 01:31:05;;;;;;;5.43;2.97;;;8.80;99.90;;;;;;4971002;28;20125;-70
2022/05/05 01:33:31;;;;;;;13.18;3.30;;;8.70;99.90;;;;;;4969334;28;20554;-69
2022/05/05 01:35:58;;;;;;;5.68;2.28;;;8.70;99.90;;;;;;4972872;28;20039;-69
2022/05/05 01:38:37;;;;;;;7.43;3.08;;;8.70;99.90;;;;;;4981394;28;20039;-70
2022/05/05 01:41:05;;;;;;;11.35;4.00;;;8.70;99.90;;;;;;4970951;28;20035;-69
2022/05/05 01:43:30;;;;;;;6.88;3.47;;;8.70;99.90;;;;;;4978137;28;20046;-69
2022/05/05 01:45:56;;;;;;;10.90;3.30;;;8.70;99.90;;;;;;4971187;28;20112;-70
2022/05/05 01:48:22;;;;;;;8.38;3.88;;;8.70;99.90;;;;;;4981957;28;20114;-69
2022/05/05 01:50:48;;;;;;;10.00;3.33;;;8.80;99.90;;;;;;4990617;28;20030;-70
2022/05/05 01:53:14;;;;;;;10.95;4.55;;;8.80;99.90;;;;;;4989970;28;20026;-68
2022/05/05 01:55:40;;;;;;;11.80;3.80;;;8.80;99.90;;;;;;4984090;28;20391;-68
2022/05/05 01:58:05;;;;;;;10.15;3.53;;;8.80;99.90;;;;;;4988242;28;20121;-68
2022/05/05 02:00:31;;;;;;;12.25;3.17;;;8.80;99.90;;;;;;4984837;28;20821;-69
2022/05/05 02:02:57;;;;;;;7.68;2.80;;;8.80;99.90;;;;;;4980221;28;20046;-69
2022/05/05 02:05:23;;;;;;;10.48;3.00;;;8.80;99.90;;;;;;4975709;28;20134;-69
2022/05/05 02:07:48;;;;;;;8.88;3.45;;;8.80;99.90;;;;;;4980438;28;20038;-70
2022/05/05 02:10:16;;;;;;;9.50;3.47;;;8.80;99.90;;;;;;4976186;28;20038;-69
2022/05/05 02:12:44;;;;;;;9.65;3.38;;;8.90;99.90;;;;;;4977533;28;20042;-70
2022/05/05 02:15:11;;;;;;;6.20;2.85;;;8.80;99.90;;;;;;4977925;28;20038;-70
2022/05/05 02:17:38;;;;;;;9.68;3.53;;;8.80;99.90;;;;;;4975391;28;20073;-69
2022/05/05 02:20:06;;;;;;;9.93;4.20;;;8.80;99.90;;;;;;4979289;28;20387;-70
2022/05/05 02:22:32;;;;;;;7.18;3.17;;;8.90;99.90;;;;;;4976648;28;20041;-70
2022/05/05 02:24:58;;;;;;;13.65;3.50;;;8.90;99.90;;;;;;4980261;28;20029;-70
2022/05/05 02:27:24;;;;;;;9.00;3.38;;;8.90;99.90;;;;;;4976240;28;20035;-70
2022/05/05 02:29:50;;;;;;;11.10;3.38;;;8.90;99.90;;;;;;4977634;28;20038;-69
2022/05/05 02:32:17;;;;;;;8.60;3.03;;;8.90;99.90;;;;;;4977526;28;20039;-70
2022/05/05 02:34:45;;;;;;;8.05;3.80;;;8.90;99.90;;;;;;4977532;28;20376;-70
2022/05/05 02:39:55;;;;;;;7.43;3.45;;;8.80;99.90;;;;;;4976171;28;20548;-69
2022/05/05 02:42:21;;;;;;;9.38;3.53;;;8.80;99.90;;;;;;4977786;28;20026;-70
2022/05/05 02:44:47;;;;;;;10.57;3.88;;;8.70;99.90;;;;;;4976831;28;20046;-70
2022/05/05 02:47:13;;;;;;;6.03;2.85;;;8.70;99.90;;;;;;4979207;28;20030;-70
2022/05/05 02:49:39;;;;;;;8.98;3.30;;;8.70;99.90;;;;;;4977536;28;20050;-69
2022/05/05 02:52:06;;;;;;;6.88;3.13;;;8.70;99.90;;;;;;4978177;28;20515;-70
2022/05/05 02:57:20;;;;;;;8.77;2.80;;;8.70;99.90;;;;;;4977966;28;20034;-68
2022/05/05 02:59:47;;;;;;;12.23;3.33;;;8.60;99.90;;;;;;4978187;28;20375;-69
2022/05/05 03:02:14;;;;;;;8.43;3.63;;;8.60;99.90;;;;;;4977329;28;20051;-71
2022/05/05 03:04:40;;;;;;;11.35;3.88;;;8.50;99.90;;;;;;4978145;28;20035;-70
2022/05/05 03:07:06;;;;;;;10.10;3.47;;;8.50;99.90;;;;;;4976978;28;20503;-69
2022/05/05 03:09:32;;;;;;;9.80;3.28;;;8.50;99.90;;;;;;4977047;28;20042;-69
2022/05/05 03:11:57;;;;;;;8.90;3.03;;;8.40;99.90;;;;;;4978939;28;20379;-69
2022/05/05 03:14:23;;;;;;;10.55;3.67;;;8.40;99.90;;;;;;4975779;28;20131;-68
2022/05/05 03:16:50;;;;;;;7.45;2.40;;;8.50;99.90;;;;;;4976325;28;20058;-68
2022/05/05 03:19:15;;;;;;;7.30;3.33;;;8.50;99.90;;;;;;4979775;28;20035;-70
2022/05/05 03:21:41;;;;;;;12.45;3.42;;;8.50;99.90;;;;;;4977000;28;20042;-68
2022/05/05 03:24:06;;;;;;;10.20;3.88;;;8.60;99.90;;;;;;4977481;28;20031;-68
2022/05/05 03:26:32;;;;;;;12.80;4.05;;;8.60;99.90;;;;;;4979062;28;20076;-71
2022/05/05 03:28:58;;;;;;;7.32;3.75;;;8.60;99.90;;;;;;4978256;28;20035;-71
2022/05/05 03:31:24;;;;;;;8.30;3.53;;;8.50;99.90;;;;;;4979637;28;20513;-70
2022/05/05 03:33:49;;;;;;;6.53;3.40;;;8.50;99.90;;;;;;4975242;28;20596;-70
2022/05/05 03:36:15;;;;;;;8.38;3.58;;;8.50;99.90;;;;;;4981154;28;20121;-70
2022/05/05 03:38:41;;;;;;;11.93;4.13;;;8.50;99.90;;;;;;4981856;28;20514;-69
2022/05/05 03:41:06;;;;;;;10.27;3.40;;;8.50;99.90;;;;;;4984560;28;20125;-70
2022/05/05 03:43:33;;;;;;;7.50;2.97;;;8.50;99.90;;;;;;4985016;28;20053;-69
2022/05/05 03:45:58;;;;;;;10.50;3.42;;;8.40;99.90;;;;;;4982811;28;20034;-69
2022/05/05 03:48:24;;;;;;;7.35;3.83;;;8.40;99.90;;;;;;4985509;28;20049;-72
2022/05/05 03:50:49;;;;;;;11.13;3.95;;;8.40;99.90;;;;;;4979149;28;20114;-72
2022/05/05 03:53:15;;;;;;;8.20;3.55;;;8.40;99.90;;;;;;4972444;28;20406;-69
2022/05/05 03:55:41;;;;;;;11.32;3.95;;;8.40;99.90;;;;;;4980073;28;20044;-69
2022/05/05 03:58:06;;;;;;;9.15;3.35;;;8.40;99.90;;;;;;4986904;28;20058;-71
2022/05/05 04:00:32;;;;;;;8.93;3.85;;;8.40;99.90;;;;;;4973904;28;20097;-69
2022/05/05 04:05:42;;;;;;;7.82;3.30;;;8.40;99.90;;;;;;4972139;28;20034;-69
2022/05/05 04:08:08;;;;;;;10.95;4.15;;;8.40;99.90;;;;;;4979044;28;20035;-69
2022/05/05 04:10:33;;;;;;;11.32;3.50;;;8.40;99.90;;;;;;4975836;28;20109;-69
2022/05/05 04:12:59;;;;;;;12.88;4.05;;;8.40;99.90;;;;;;4978347;28;20125;-70
2022/05/05 04:15:25;;;;;;;8.05;3.42;;;8.40;99.90;;;;;;4979630;28;20042;-70
2022/05/05 04:17:51;;;;;;;8.10;3.65;;;8.50;99.90;;;;;;4982084;28;20081;-68
2022/05/05 04:20:17;;;;;;;17.95;3.92;;;8.50;99.90;;;;;;4978576;28;20485;-68
2022/05/05 04:22:43;;;;;;;9.30;4.10;;;8.50;99.90;;;;;;4981364;28;20371;-69
2022/05/05 04:25:12;;;;;;;12.27;4.95;;;8.60;99.90;;;;;;4979387;28;20511;-70
2022/05/05 04:27:39;;;;;;;10.68;4.07;;;8.60;99.90;;;;;;4977536;28;20528;-69
2022/05/05 04:30:05;;;;;;;13.52;4.47;;;8.70;99.90;;;;;;4977086;28;20027;-69
2022/05/05 04:32:31;;;;;;;12.35;4.50;;;8.80;99.90;;;;;;4971224;28;20039;-69
2022/05/05 04:34:57;;;;;;;12.27;4.78;;;8.90;99.90;;;;;;4970578;28;20053;-73
2022/05/05 04:37:22;;;;;;;10.73;4.47;;;9.00;99.90;;;;;;4984051;28;20046;-69
2022/05/05 04:39:48;;;;;;;14.63;4.35;;;9.10;99.90;;;;;;4985513;28;20461;-69
2022/05/05 04:42:15;;;;;;;22.80;5.43;;;9.20;99.90;;;;;;4979139;28;20035;-70
2022/05/05 04:44:41;;;;;;;13.85;5.10;;;9.30;99.90;;;;;;4971022;28;20081;-68
2022/05/05 04:47:06;;;;;;;14.32;4.32;;;9.40;99.90;;;;;;4982911;28;20427;-69
2022/05/05 04:49:32;;;;;;;15.32;4.65;;;9.40;99.90;;;;;;4988764;28;20034;-69
2022/05/05 04:51:58;;;;;;;11.77;4.30;;;9.50;99.90;;;;;;4977816;28;20106;-69
2022/05/05 04:54:23;;;;;;;11.18;4.68;;;9.60;99.90;;;;;;4987532;28;20030;-69
2022/05/05 04:56:49;;;;;;;13.57;5.22;;;9.60;99.90;;;;;;4983361;28;20076;-69
2022/05/05 04:59:14;;;;;;;13.35;4.93;;;9.70;99.90;;;;;;4981498;28;20026;-71
2022/05/05 05:01:40;;;;;;;20.00;6.53;;;9.70;99.90;;;;;;4974712;28;20046;-69
2022/05/05 05:04:06;;;;;;;20.67;5.43;;;9.80;99.90;;;;;;4986511;28;20085;-69
2022/05/05 05:06:32;;;;;;;22.33;6.60;;;9.90;99.90;;;;;;4970020;28;20026;-69
2022/05/05 05:08:58;;;;;;;16.52;6.63;;;10.00;99.90;;;;;;4983933;28;20041;-69
2022/05/05 05:11:24;;;;;;;12.95;4.85;;;10.10;99.90;;;;;;4971320;28;20027;-70
2022/05/05 05:13:50;;;;;;;14.52;4.72;;;10.20;99.90;;;;;;4981324;28;20035;-70
2022/05/05 05:16:16;;;;;;;15.10;4.90;;;10.30;99.90;;;;;;4986228;28;20038;-68
2022/05/05 05:18:41;;;;;;;16.20;6.30;;;10.30;99.90;;;;;;4986625;28;20113;-69
2022/05/05 05:21:07;;;;;;;17.65;6.47;;;10.40;99.90;;;;;;4974662;28;20141;-70
2022/05/05 05:23:33;;;;;;;14.48;5.22;;;10.50;99.90;;;;;;4978075;28;20134;-70
2022/05/05 05:25:58;;;;;;;13.82;5.25;;;10.50;99.90;;;;;;4980050;28;20031;-69
2022/05/05 05:28:24;;;;;;;13.55;5.38;;;10.60;99.90;;;;;;4978390;28;20031;-70
2022/05/05 05:30:50;;;;;;;11.95;6.07;;;10.60;99.90;;;;;;4980464;28;20470;-70
2022/05/05 05:33:16;;;;;;;14.55;5.72;;;10.80;99.90;;;;;;4977141;28;20055;-70
2022/05/05 05:35:44;;;;;;;18.27;5.40;;;10.80;99.90;;;;;;4980997;28;20121;-70
2022/05/05 05:38:10;;;;;;;12.50;5.78;;;10.90;99.90;;;;;;4974084;28;20035;-70
2022/05/05 05:40:36;;;;;;;17.90;4.63;;;10.90;99.90;;;;;;4980257;28;20038;-70
2022/05/05 05:43:03;;;;;;;12.77;5.18;;;10.90;99.90;;;;;;4980213;28;20023;-70
2022/05/05 05:45:29;;;;;;;16.95;5.78;;;10.90;99.90;;;;;;4977735;28;20030;-69
2022/05/05 05:47:55;;;;;;;14.38;5.45;;;10.90;99.90;;;;;;4979425;28;20097;-70
2022/05/05 05:50:21;;;;;;;14.90;5.50;;;10.90;99.90;;;;;;4978120;28;20129;-70
2022/05/05 05:52:47;;;;;;;20.73;5.50;;;11.00;99.90;;;;;;4977796;28;20391;-70
2022/05/05 05:55:13;;;;;;;10.60;4.82;;;11.00;99.90;;;;;;4979799;28;20026;-69
2022/05/05 05:57:39;;;;;;;14.57;5.30;;;11.10;99.90;;;;;;4973523;28;20517;-70
2022/05/05 06:00:05;;;;;;;20.63;6.05;;;11.10;99.90;;;;;;4976912;28;20026;-70
2022/05/05 06:05:16;;;;;;;16.60;5.53;;;11.20;99.90;;;;;;4974708;28;20103;-70
2022/05/05 06:07:41;;;;;;;20.80;5.47;;;11.30;99.90;;;;;;4975726;28;20041;-70
2022/05/05 06:10:07;;;;;;;39.22;6.55;;;11.30;99.90;;;;;;4971611;28;20039;-70
2022/05/05 06:12:33;;;;;;;32.58;7.88;;;11.40;99.90;;;;;;4975425;28;20030;-70
2022/05/05 06:14:58;;;;;;;21.52;5.72;;;11.50;99.90;;;;;;4973000;28;20479;-70
2022/05/05 06:17:24;;;;;;;18.00;6.15;;;11.50;99.90;;;;;;4978871;28;20031;-70
2022/05/05 06:19:50;;;;;;;14.88;6.18;;;11.60;99.90;;;;;;4978315;28;20039;-69
2022/05/05 06:22:15;;;;;;;14.85;5.72;;;11.70;99.90;;;;;;4979632;28;20038;-71
2022/05/05 06:24:41;;;;;;;19.10;6.28;;;11.70;99.90;;;;;;4976256;28;20035;-69
2022/05/05 06:27:07;;;;;;;20.50;6.60;;;11.70;99.90;;;;;;4979301;28;20030;-70
2022/05/05 06:29:33;;;;;;;14.93;5.45;;;11.70;99.90;;;;;;4975082;28;20046;-68
2022/05/05 06:31:58;;;;;;;23.20;6.68;;;11.70;99.90;;;;;;4971209;28;20030;-71
2022/05/05 06:34:24;;;;;;;15.73;5.90;;;11.70;99.90;;;;;;4975646;28;20086;-70
2022/05/05 06:36:49;;;;;;;14.63;6.63;;;11.70;99.90;;;;;;4978398;28;20030;-71
2022/05/05 06:39:15;;;;;;;21.35;6.78;;;11.80;99.90;;;;;;4976671;28;20027;-67
2022/05/05 06:41:41;;;;;;;26.08;5.72;;;11.90;99.90;;;;;;4978708;28;20682;-70
2022/05/05 06:44:06;;;;;;;22.60;5.60;;;11.90;99.90;;;;;;4970375;28;20038;-70
2022/05/05 06:46:32;;;;;;;20.33;6.85;;;12.00;99.90;;;;;;4974246;28;20121;-70
2022/05/05 06:48:58;;;;;;;14.25;6.47;;;12.00;99.90;;;;;;4976146;28;20066;-70
2022/05/05 06:51:24;;;;;;;16.35;5.68;;;12.10;99.90;;;;;;4977326;28;20030;-70
2022/05/05 06:53:49;;;;;;;19.35;6.63;;;12.10;99.90;;;;;;4977741;28;20479;-70
2022/05/05 06:56:15;;;;;;;14.48;6.00;;;12.10;99.90;;;;;;4976613;28;20031;-70
2022/05/05 06:58:40;;;;;;;26.02;6.55;;;12.10;99.90;;;;;;4973962;28;20834;-70
2022/05/05 07:05:23;;;;;;;15.77;6.47;;;12.20;99.90;;;;;;4982590;28;20171;-71
2022/05/05 07:06:35;;;;;;;20.88;6.18;;;12.30;99.90;;;;;;4978132;28;20038;-70
2022/05/05 07:11:45;;;;;;;32.88;6.78;;;12.40;99.90;;;;;;4982120;28;20085;-69
2022/05/05 07:14:12;;;;;;;14.85;6.20;;;12.50;99.90;;;;;;4977451;28;20043;-70
2022/05/05 07:16:37;;;;;;;15.57;5.82;;;12.50;99.90;;;;;;4982282;28;20031;-71
2022/05/05 07:19:04;;;;;;;18.63;6.32;;;12.70;99.90;;;;;;4960512;28;20562;-69
2022/05/05 07:21:30;;;;;;;18.05;6.65;;;12.80;99.90;;;;;;4971447;28;20050;-69
2022/05/05 07:23:56;;;;;;;22.25;8.30;;;12.90;99.90;;;;;;4986472;28;20094;-70
2022/05/05 07:26:22;;;;;;;22.67;6.30;;;13.00;99.90;;;;;;4971864;28;20431;-70
2022/05/05 07:28:47;;;;;;;13.48;5.50;;;13.10;99.90;;;;;;4977313;28;20030;-69
2022/05/05 07:31:13;;;;;;;22.55;5.45;;;13.20;99.90;;;;;;4982661;28;20066;-70
2022/05/05 07:33:38;;;;;;;20.10;5.80;;;13.20;99.90;;;;;;4975219;28;20551;-73
2022/05/05 07:36:04;;;;;;;13.35;4.75;;;13.30;99.90;;;;;;4991485;28;20030;-70
2022/05/05 07:38:30;;;;;;;16.27;6.53;;;13.50;99.90;;;;;;4980026;28;20047;-70
2022/05/05 07:40:55;;;;;;;15.60;5.53;;;13.50;99.90;;;;;;4986425;28;20066;-70
2022/05/05 07:43:21;;;;;;;15.82;5.53;;;13.50;99.90;;;;;;4972214;28;20046;-70
2022/05/05 07:45:48;;;;;;;18.50;7.78;;;13.50;99.90;;;;;;4969119;28;20049;-71
2022/05/05 07:48:13;;;;;;;20.25;5.78;;;13.60;99.90;;;;;;4977506;28;20031;-69
2022/05/05 07:50:39;;;;;;;18.13;7.22;;;13.70;99.90;;;;;;4971201;28;20491;-69
2022/05/05 07:53:04;;;;;;;19.98;7.22;;;13.80;99.90;;;;;;4985070;28;20121;-69
2022/05/05 07:55:30;;;;;;;15.93;5.78;;;13.90;99.90;;;;;;4985358;28;20046;-72
2022/05/05 07:57:57;;;;;;;18.55;5.95;;;14.00;99.90;;;;;;4971705;28;20027;-71
2022/05/05 08:00:23;;;;;;;24.45;7.35;;;14.10;99.90;;;;;;4969900;28;20047;-74
2022/05/05 08:02:49;;;;;;;15.38;6.70;;;14.20;99.90;;;;;;4968739;28;20647;-70
2022/05/05 08:05:15;;;;;;;20.77;7.75;;;14.30;99.90;;;;;;4971045;28;20023;-69
2022/05/05 08:07:44;;;;;;;19.30;6.97;;;14.40;99.90;;;;;;4970663;28;20056;-69
2022/05/05 08:10:10;;;;;;;24.52;8.50;;;14.50;99.90;;;;;;4970689;28;20240;-70
2022/05/05 08:12:36;;;;;;;15.90;6.45;;;14.50;99.90;;;;;;4966504;28;20043;-71
2022/05/05 08:15:02;;;;;;;15.90;6.63;;;14.60;99.90;;;;;;4972717;28;20035;-71
2022/05/05 08:17:28;;;;;;;18.98;7.47;;;14.70;99.90;;;;;;4969102;28;20435;-70
2022/05/05 08:19:54;;;;;;;20.05;8.60;;;14.80;99.90;;;;;;4970161;28;20562;-71
2022/05/05 08:22:20;;;;;;;22.70;8.02;;;14.90;99.90;;;;;;4969018;28;20066;-69
2022/05/05 08:30:14;;;;;;;20.42;8.95;;;15.10;99.90;;;;;;4973167;28;20558;-70
2022/05/05 08:32:40;;;;;;;18.23;8.38;;;15.20;99.90;;;;;;4969530;28;20220;-70
2022/05/05 08:35:06;;;;;;;23.98;8.77;;;15.10;99.90;;;;;;4969989;28;20061;-69
2022/05/05 08:37:31;;;;;;;23.85;8.63;;;15.20;99.90;;;;;;4970424;28;20096;-69
2022/05/05 08:39:57;;;;;;;19.55;8.45;;;15.30;99.90;;;;;;4970547;28;20037;-73
2022/05/05 08:42:24;;;;;;;26.45;8.95;;;15.30;99.90;;;;;;4974991;28;20027;-69
2022/05/05 08:44:49;;;;;;;22.30;10.45;;;15.40;99.90;;;;;;4974287;28;20026;-70
2022/05/05 08:47:17;;;;;;;23.17;10.00;;;15.50;99.90;;;;;;4978163;28;20040;-68
2022/05/05 08:49:43;;;;;;;33.13;10.95;;;15.70;99.90;;;;;;4970964;28;20049;-69
2022/05/05 08:52:11;;;;;;;27.52;10.68;;;15.70;99.90;;;;;;4968965;28;20023;-69
2022/05/05 08:54:39;;;;;;;29.60;10.55;;;15.80;99.90;;;;;;4973161;28;20177;-70
2022/05/05 08:57:05;;;;;;;23.20;9.23;;;15.90;99.90;;;;;;4980823;28;20394;-71
2022/05/05 08:59:31;;;;;;;22.95;10.43;;;15.90;99.90;;;;;;4977980;28;20041;-71
2022/05/05 09:01:57;;;;;;;24.50;11.18;;;16.10;99.90;;;;;;4985264;28;20049;-73
2022/05/05 09:04:22;;;;;;;26.98;10.75;;;16.30;99.90;;;;;;4979251;28;20126;-72
2022/05/05 09:06:51;;;;;;;28.05;12.15;;;16.20;99.90;;;;;;4971455;28;20146;-69
2022/05/05 09:09:31;;;;;;;29.80;12.45;;;16.40;99.90;;;;;;4971116;28;20035;-69
2022/05/05 09:12:07;;;;;;;29.63;12.88;;;16.50;99.90;;;;;;4983241;28;20097;-72
2022/05/05 09:14:45;;;;;;;29.02;11.90;;;16.60;99.90;;;;;;4951924;28;20054;-69
2022/05/05 09:17:21;;;;;;;25.58;11.40;;;16.60;99.90;;;;;;4986654;28;20050;-69
2022/05/05 09:19:49;;;;;;;28.30;11.75;;;16.70;99.90;;;;;;4970539;28;20047;-71
2022/05/05 09:22:18;;;;;;;31.23;13.45;;;16.70;99.90;;;;;;4971119;28;20041;-74
2022/05/05 09:24:51;;;;;;;29.75;12.00;;;16.90;99.90;;;;;;4988834;28;20022;-72
2022/05/05 09:27:18;;;;;;;26.58;11.13;;;17.00;99.90;;;;;;4991301;28;20609;-71
2022/05/05 09:29:59;;;;;;;35.65;12.43;;;17.00;99.90;;;;;;4986278;28;20031;-68
2022/05/05 09:32:29;;;;;;;25.90;11.25;;;17.10;99.90;;;;;;4988885;28;20113;-71
2022/05/05 09:35:02;;;;;;;37.13;12.55;;;17.30;99.90;;;;;;4984669;28;20556;-71
2022/05/05 09:37:29;;;;;;;31.27;14.02;;;17.30;99.90;;;;;;4989540;28;20041;-68
2022/05/05 09:39:56;;;;;;;29.90;12.55;;;17.60;99.90;;;;;;4974403;28;20556;-69
2022/05/05 09:42:40;;;;;;;29.75;12.18;;;17.70;99.90;;;;;;4969929;28;20070;-69
2022/05/05 09:45:22;;;;;;;32.47;12.40;;;17.90;99.90;;;;;;4970822;28;20023;-69
2022/05/05 09:47:49;;;;;;;26.75;12.57;;;18.00;99.90;;;;;;4974330;28;20058;-70
2022/05/05 09:50:16;;;;;;;28.83;13.18;;;18.20;99.90;;;;;;4967884;28;20043;-69
2022/05/05 09:58:15;;;;;;;34.67;13.35;;;18.40;99.90;;;;;;4963323;28;20038;-70
2022/05/05 10:04:03;;;;;;;28.42;14.20;;;18.80;99.90;;;;;;4970568;28;20073;-71
2022/05/05 10:06:41;;;;;;;23.70;12.43;;;19.10;99.90;;;;;;4970968;28;20083;-72
2022/05/05 10:09:16;;;;;;;26.25;12.93;;;19.40;99.90;;;;;;4974116;28;20037;-70
2022/05/05 10:11:42;;;;;;;28.23;12.98;;;19.50;99.90;;;;;;4969647;28;20035;-70
2022/05/05 10:14:10;;;;;;;26.38;13.05;;;19.50;99.90;;;;;;4985620;28;20041;-71
2022/05/05 10:16:37;;;;;;;24.90;12.63;;;19.60;99.50;;;;;;4977650;28;20038;-71
2022/05/05 10:19:04;;;;;;;29.75;13.07;;;19.50;99.90;;;;;;4982710;28;20035;-71
2022/05/05 10:21:54;;;;;;;22.83;12.48;;;19.70;99.30;;;;;;4980028;28;20597;-71
2022/05/05 10:24:31;;;;;;;24.85;11.70;;;19.50;99.90;;;;;;4973290;28;20042;-71
2022/05/05 10:27:02;;;;;;;26.80;13.25;;;19.50;99.80;;;;;;4982151;28;20038;-72
2022/05/05 10:29:31;;;;;;;26.48;13.00;;;19.40;99.90;;;;;;4977206;28;20037;-70
2022/05/05 10:32:20;;;;;;;24.13;12.93;;;19.30;99.90;;;;;;4980633;28;20092;-76
2022/05/05 10:35:12;;;;;;;23.88;11.35;;;19.60;99.90;;;;;;4948893;28;20369;-70
2022/05/05 10:37:39;;;;;;;30.13;13.60;;;19.80;99.90;;;;;;4960138;28;20089;-70
2022/05/05 10:40:07;;;;;;;29.08;12.57;;;19.90;99.30;;;;;;4979426;28;20130;-73
2022/05/05 10:42:45;;;;;;;23.63;12.05;;;20.00;99.40;;;;;;4971323;28;20065;-74
2022/05/05 10:45:18;;;;;;;20.13;11.75;;;20.00;99.00;;;;;;4974734;28;20402;-70
2022/05/05 10:47:54;;;;;;;23.90;12.43;;;20.00;99.20;;;;;;4982417;28;20031;-71
2022/05/05 10:50:28;;;;;;;23.27;11.68;;;20.00;99.40;;;;;;4989851;28;20049;-68
2022/05/05 10:52:54;;;;;;;28.73;12.18;;;20.20;99.20;;;;;;4977937;28;20099;-74
2022/05/05 10:55:32;;;;;;;23.98;12.18;;;20.10;98.30;;;;;;4982793;28;20586;-72
2022/05/05 10:57:57;;;;;;;34.17;12.90;;;19.90;98.80;;;;;;4982174;28;20038;-71
2022/05/05 11:00:24;;;;;;;21.77;12.10;;;19.90;99.10;;;;;;4985186;28;20037;-69
2022/05/05 11:02:58;;;;;;;25.30;12.70;;;19.90;98.90;;;;;;4982131;28;20041;-69
2022/05/05 11:05:27;;;;;;;22.30;11.77;;;19.90;98.80;;;;;;4986916;28;20038;-71
2022/05/05 11:07:53;;;;;;;23.33;11.25;;;19.90;98.90;;;;;;4993965;28;20390;-69
2022/05/05 11:10:40;;;;;;;24.90;11.40;;;20.10;98.60;;;;;;4988834;28;20113;-70
2022/05/05 11:13:06;;;;;;;20.67;11.57;;;20.20;98.00;;;;;;4982147;28;20034;-70
2022/05/05 11:21:33;;;;;;;21.17;10.55;;;20.20;97.60;;;;;;4979722;28;20034;-71
2022/05/05 11:24:00;;;;;;;19.77;10.15;;;20.30;97.30;;;;;;4967197;28;20549;-74
2022/05/05 11:26:26;;;;;;;18.63;9.40;;;20.10;97.20;;;;;;4984858;28;20439;-71
2022/05/05 11:28:53;;;;;;;21.35;11.20;;;20.20;96.70;;;;;;4980280;28;20042;-70
2022/05/05 11:31:19;;;;;;;23.38;10.45;;;20.20;96.60;;;;;;4985487;28;20129;-70
2022/05/05 11:34:04;;;;;;;22.80;11.07;;;20.20;96.80;;;;;;4974449;28;20177;-70
2022/05/05 11:36:34;;;;;;;24.65;11.73;;;20.30;97.60;;;;;;4975937;28;20129;-73
2022/05/05 11:39:01;;;;;;;23.15;10.77;;;20.30;97.80;;;;;;4987281;28;20039;-70
2022/05/05 11:41:28;;;;;;;23.42;11.43;;;20.30;97.20;;;;;;4992984;28;20521;-69
2022/05/05 11:46:39;;;;;;;18.30;9.00;;;20.70;96.60;;;;;;4984055;28;20168;-72
2022/05/05 11:49:05;;;;;;;19.75;8.93;;;20.70;96.20;;;;;;4985805;28;20031;-69
2022/05/05 11:51:33;;;;;;;11.27;7.95;;;20.80;95.40;;;;;;4984768;28;20035;-68
2022/05/05 11:54:15;;;;;;;23.45;9.70;;;20.80;95.50;;;;;;4991478;28;20037;-71
2022/05/05 11:56:46;;;;;;;29.13;10.23;;;20.90;95.60;;;;;;4985522;28;20038;-70
2022/05/05 12:02:18;;;;;;;14.68;8.07;;;20.40;95.70;;;;;;4973569;28;20442;-73
2022/05/05 12:04:46;;;;;;;18.30;10.48;;;20.40;95.20;;;;;;4976839;28;20031;-70
2022/05/05 12:07:20;;;;;;;18.05;8.75;;;20.20;95.60;;;;;;4980698;28;20048;-71
2022/05/05 12:09:53;;;;;;;22.40;9.38;;;20.40;96.30;;;;;;4982126;28;20116;-70
2022/05/05 12:12:21;;;;;;;21.33;9.85;;;20.50;95.40;;;;;;4966955;28;20105;-70
2022/05/05 12:14:49;;;;;;;18.33;9.10;;;20.40;95.80;;;;;;4969749;28;20027;-71
2022/05/05 12:17:18;;;;;;;18.77;9.50;;;20.70;96.00;;;;;;4981775;28;20037;-72
2022/05/05 12:19:55;;;;;;;15.43;7.55;;;20.80;95.70;;;;;;4981637;28;20030;-69
2022/05/05 12:22:38;;;;;;;16.45;9.68;;;20.90;94.30;;;;;;4970290;28;20031;-74
2022/05/05 12:25:06;;;;;;;14.65;8.40;;;20.80;95.20;;;;;;4985214;28;20046;-70
2022/05/05 12:27:32;;;;;;;17.90;8.85;;;20.80;95.60;;;;;;4976786;28;20566;-74
2022/05/05 12:29:58;;;;;;;17.40;8.18;;;20.80;94.80;;;;;;4982667;28;20062;-70
2022/05/05 12:32:24;;;;;;;15.27;8.48;;;20.90;94.40;;;;;;4975060;28;20051;-70
2022/05/05 12:35:04;;;;;;;20.45;10.60;;;21.00;94.10;;;;;;4979301;28;20109;-71
2022/05/05 12:37:30;;;;;;;20.48;10.20;;;20.80;94.70;;;;;;4979976;28;20078;-69
2022/05/05 12:40:04;;;;;;;17.25;9.02;;;20.80;95.20;;;;;;4982858;28;20482;-70
2022/05/05 12:43:02;;;;;;;20.48;10.55;;;21.00;95.30;;;;;;4976042;28;20060;-69
2022/05/05 12:45:31;;;;;;;16.38;9.80;;;21.10;95.40;;;;;;4975157;28;20446;-70
2022/05/05 12:48:00;;;;;;;17.33;10.10;;;21.20;94.80;;;;;;4976210;28;20078;-70
2022/05/05 12:50:36;;;;;;;21.20;9.23;;;21.10;94.20;;;;;;4969723;28;20038;-71
2022/05/05 13:01:28;;;;;;;15.05;7.68;;;21.20;93.70;;;;;;4970339;28;20068;-71
2022/05/05 13:03:54;;;;;;;15.32;7.53;;;21.10;93.00;;;;;;4966472;28;20043;-70
2022/05/05 13:06:21;;;;;;;14.32;7.93;;;21.00;93.20;;;;;;4970538;28;20038;-71
2022/05/05 13:08:47;;;;;;;21.55;9.40;;;21.00;93.10;;;;;;4968655;28;20031;-69
2022/05/05 13:11:17;;;;;;;15.90;8.02;;;20.80;94.30;;;;;;4970773;28;20033;-70
2022/05/05 13:13:44;;;;;;;14.32;8.73;;;20.90;94.20;;;;;;4971520;28;20035;-70
2022/05/05 13:16:11;;;;;;;17.00;8.65;;;20.80;94.30;;;;;;4973721;28;20487;-71
2022/05/05 13:18:37;;;;;;;16.08;8.25;;;20.90;94.00;;;;;;4971665;28;20888;-75
2022/05/05 13:21:02;;;;;;;16.23;8.73;;;21.20;94.00;;;;;;4970224;28;20086;-70
2022/05/05 13:23:28;;;;;;;16.25;8.90;;;21.20;93.40;;;;;;4973601;28;20496;-69
2022/05/05 13:25:53;;;;;;;14.23;7.63;;;21.00;92.80;;;;;;4970934;28;20070;-71
2022/05/05 13:28:20;;;;;;;18.55;8.35;;;20.80;93.00;;;;;;4972359;28;20038;-72
2022/05/05 13:30:46;;;;;;;16.25;7.20;;;20.70;93.40;;;;;;4971778;28;20058;-70
2022/05/05 13:33:12;;;;;;;14.77;7.30;;;20.70;93.40;;;;;;4974146;28;20507;-73
2022/05/05 13:35:37;;;;;;;22.92;8.10;;;20.60;93.80;;;;;;4966203;28;20185;-71
2022/05/05 13:38:03;;;;;;;15.75;8.48;;;20.70;93.50;;;;;;4970081;28;20039;-71
2022/05/05 13:40:28;;;;;;;15.27;7.45;;;20.80;92.90;;;;;;4968707;28;20035;-70